createdAt,value
2023-10-26T06:47:40.389Z,10.68
2023-10-26T06:48:40.283Z,10.63
2023-10-26T06:49:40.238Z,10.71
2023-10-26T06:50:40.227Z,10.66
2023-10-26T06:51:40.237Z,10.53
2023-10-26T06:52:40.206Z,10.71
2023-10-26T06:53:40.206Z,10.66
2023-10-26T06:54:40.795Z,10.58
2023-10-26T06:55:40.170Z,10.74
2023-10-26T06:56:40.154Z,10.62
2023-10-26T06:57:40.146Z,10.62
2023-10-26T06:58:40.152Z,10.74
2023-10-26T06:59:40.132Z,10.71
2023-10-26T07:00:40.168Z,10.71
2023-10-26T07:02:09.744Z,10.74
2023-10-26T07:02:41.137Z,10.76
2023-10-26T07:03:40.209Z,10.68
2023-10-26T07:04:40.145Z,10.77
2023-10-26T07:05:40.057Z,10.77
2023-10-26T07:06:40.077Z,10.74
2023-10-26T07:07:40.039Z,10.73
2023-10-26T07:08:40.062Z,10.81
2023-10-26T07:09:40.016Z,10.70
2023-10-26T07:10:39.999Z,10.89
2023-10-26T07:11:39.987Z,10.96
2023-10-26T07:12:40.046Z,10.95
2023-10-26T07:13:39.966Z,10.89
2023-10-26T07:14:39.977Z,10.92
2023-10-26T07:15:39.968Z,10.89
2023-10-26T07:16:39.964Z,10.89
2023-10-26T07:17:40.043Z,10.91
2023-10-26T07:18:39.939Z,10.95
2023-10-26T07:19:39.934Z,10.98
2023-10-26T07:20:39.890Z,11.02
2023-10-26T07:21:39.932Z,10.94
2023-10-26T07:22:39.862Z,10.98
2023-10-26T07:23:39.852Z,11.07
2023-10-26T07:24:39.876Z,11.01
2023-10-26T07:25:39.832Z,11.13
2023-10-26T07:26:39.823Z,11.13
2023-10-26T07:27:39.852Z,11.14
2023-10-26T07:28:39.793Z,11.32
2023-10-26T07:29:39.855Z,11.25
2023-10-26T07:30:39.834Z,11.35
2023-10-26T07:31:39.836Z,11.34
2023-10-26T07:32:39.763Z,11.28
2023-10-26T07:33:39.780Z,11.39
2023-10-26T07:34:39.731Z,11.28
2023-10-26T07:35:39.739Z,11.36
2023-10-26T07:36:39.763Z,11.46
2023-10-26T07:37:39.696Z,11.44
2023-10-26T07:38:39.681Z,11.47
2023-10-26T07:39:46.456Z,11.49
2023-10-26T07:40:40.711Z,11.50
2023-10-26T07:42:06.882Z,11.49
2023-10-26T07:42:40.685Z,11.50
2023-10-26T07:43:39.628Z,11.49
2023-10-26T07:44:39.634Z,11.50
2023-10-26T07:45:39.630Z,11.56
2023-10-26T07:46:39.634Z,11.56
2023-10-26T07:47:39.652Z,11.56
2023-10-26T07:48:39.613Z,11.52
2023-10-26T07:49:39.561Z,11.59
2023-10-26T07:50:41.049Z,11.56
2023-10-26T07:51:39.611Z,11.57
2023-10-26T07:52:39.561Z,11.47
2023-10-26T07:53:39.526Z,11.54
2023-10-26T07:54:39.541Z,11.54
2023-10-26T07:55:39.490Z,11.52
2023-10-26T07:56:39.493Z,11.49
2023-10-26T07:57:39.490Z,11.52
2023-10-26T07:58:39.515Z,11.52
2023-10-26T07:59:39.448Z,11.39
2023-10-26T08:00:39.459Z,11.57
2023-10-26T08:01:39.468Z,11.56
2023-10-26T08:02:40.964Z,11.56
2023-10-26T08:03:39.479Z,11.62
2023-10-26T08:04:39.477Z,11.62
2023-10-26T08:05:39.374Z,11.64
2023-10-26T08:06:39.363Z,11.53
2023-10-26T08:07:39.455Z,11.47
2023-10-26T08:08:39.376Z,11.49
2023-10-26T08:09:39.328Z,11.56
2023-10-26T08:10:39.401Z,11.61
2023-10-26T08:11:39.308Z,11.56
2023-10-26T08:12:39.303Z,11.70
2023-10-26T08:13:39.326Z,11.62
2023-10-26T08:16:08.966Z,11.59
2023-10-26T08:16:10.337Z,11.62
2023-10-26T08:16:44.887Z,11.68
2023-10-26T08:17:39.424Z,11.67
2023-10-26T08:18:39.376Z,11.70
2023-10-26T08:19:39.253Z,11.64
2023-10-26T08:20:39.203Z,11.61
2023-10-26T08:21:39.200Z,11.65
2023-10-26T08:22:39.215Z,11.65
2023-10-26T08:23:39.207Z,11.72
2023-10-26T08:24:39.191Z,11.75
2023-10-26T08:25:39.214Z,11.77
2023-10-26T08:26:39.138Z,11.83
2023-10-26T08:27:39.123Z,11.80
2023-10-26T08:28:39.130Z,11.78
2023-10-26T08:29:39.111Z,11.89
2023-10-26T08:30:39.107Z,11.93
2023-10-26T08:31:39.520Z,11.97
2023-10-26T08:32:39.189Z,11.86
2023-10-26T08:33:39.115Z,12.01
2023-10-26T08:34:39.125Z,11.97
2023-10-26T08:35:39.067Z,11.97
2023-10-26T08:36:42.153Z,12.01
2023-10-26T08:37:40.039Z,12.08
2023-10-26T08:38:39.010Z,12.04
2023-10-26T08:39:39.045Z,12.11
2023-10-26T08:40:38.997Z,12.06
2023-10-26T08:41:38.996Z,12.08
2023-10-26T08:42:38.967Z,12.15
2023-10-26T08:43:38.979Z,12.12
2023-10-26T08:44:38.957Z,12.13
2023-10-26T08:45:38.917Z,12.13
2023-10-26T08:46:39.037Z,12.27
2023-10-26T08:47:38.948Z,12.31
2023-10-26T08:48:38.898Z,12.48
2023-10-26T08:49:38.925Z,12.59
2023-10-26T08:50:38.918Z,12.64
2023-10-26T08:51:38.855Z,12.79
2023-10-26T08:52:38.886Z,12.84
2023-10-26T08:53:38.830Z,12.92
2023-10-26T08:54:38.924Z,12.88
2023-10-26T08:55:38.891Z,12.97
2023-10-26T08:56:38.832Z,12.99
2023-10-26T08:57:38.805Z,12.87
2023-10-26T08:58:38.850Z,12.92
2023-10-26T08:59:38.780Z,13.00
2023-10-26T09:00:38.754Z,13.03
2023-10-26T09:01:38.821Z,13.11
2023-10-26T09:02:38.869Z,13.04
2023-10-26T09:03:38.794Z,13.03
2023-10-26T09:04:38.832Z,13.12
2023-10-26T09:05:38.691Z,13.11
2023-10-26T09:06:38.679Z,13.14
2023-10-26T09:07:38.689Z,13.12
2023-10-26T09:08:38.676Z,13.17
2023-10-26T09:09:38.658Z,13.22
2023-10-26T09:10:38.671Z,13.20
2023-10-26T09:11:38.647Z,13.06
2023-10-26T09:12:38.618Z,13.06
2023-10-26T09:13:38.685Z,13.00
2023-10-26T09:14:38.626Z,13.02
2023-10-26T09:15:38.582Z,12.97
2023-10-26T09:16:38.633Z,12.87
2023-10-26T09:17:38.662Z,12.84
2023-10-26T09:18:38.546Z,12.67
2023-10-26T09:19:38.586Z,12.70
2023-10-26T09:20:38.537Z,12.75
2023-10-26T09:21:38.516Z,12.56
2023-10-26T09:22:38.586Z,12.75
2023-10-26T09:23:38.569Z,12.64
2023-10-26T09:24:38.540Z,12.74
2023-10-26T09:25:38.581Z,12.77
2023-10-26T09:26:38.452Z,12.74
2023-10-26T09:27:38.462Z,12.70
2023-10-26T09:28:38.448Z,12.77
2023-10-26T09:29:38.434Z,12.70
2023-10-26T09:30:38.404Z,12.71
2023-10-26T09:31:38.541Z,12.69
2023-10-26T09:32:38.603Z,12.77
2023-10-26T09:33:38.428Z,12.81
2023-10-26T09:34:38.390Z,12.71
2023-10-26T09:35:38.349Z,12.64
2023-10-26T09:36:38.337Z,12.64
2023-10-26T09:37:38.618Z,12.75
2023-10-26T09:38:38.718Z,12.85
2023-10-26T09:39:38.308Z,12.70
2023-10-26T09:40:38.318Z,12.84
2023-10-26T09:41:38.280Z,12.79
2023-10-26T09:42:38.302Z,12.88
2023-10-26T09:43:38.278Z,13.00
2023-10-26T09:44:38.256Z,12.95
2023-10-26T09:45:38.247Z,12.97
2023-10-26T09:46:38.291Z,12.84
2023-10-26T09:47:38.350Z,12.87
2023-10-26T09:48:38.306Z,12.87
2023-10-26T09:49:38.235Z,12.81
2023-10-26T09:50:38.182Z,12.81
2023-10-26T09:51:38.166Z,12.78
2023-10-26T09:52:38.153Z,12.75
2023-10-26T09:53:38.226Z,12.84
2023-10-26T09:54:38.141Z,12.78
2023-10-26T09:55:38.128Z,12.88
2023-10-26T09:56:38.139Z,12.96
2023-10-26T09:57:38.118Z,12.79
2023-10-26T09:58:38.087Z,12.99
2023-10-26T09:59:38.123Z,12.93
2023-10-26T10:00:38.088Z,12.89
2023-10-26T10:01:38.287Z,12.88
2023-10-26T10:02:38.054Z,12.92
2023-10-26T10:03:38.068Z,12.93
2023-10-26T10:04:38.032Z,13.06
2023-10-26T10:05:38.007Z,13.09
2023-10-26T10:06:38.082Z,13.12
2023-10-26T10:07:37.986Z,13.14
2023-10-26T10:08:37.974Z,13.21
2023-10-26T10:09:38.004Z,13.22
2023-10-26T10:10:37.954Z,13.25
2023-10-26T10:11:37.939Z,13.24
2023-10-26T10:12:37.948Z,13.09
2023-10-26T10:13:37.919Z,13.18
2023-10-26T10:14:37.918Z,13.17
2023-10-26T10:15:42.586Z,13.17
2023-10-26T10:16:38.942Z,13.15
2023-10-26T10:17:38.161Z,13.14
2023-10-26T10:18:37.881Z,13.14
2023-10-26T10:19:38.239Z,13.25
2023-10-26T10:20:37.838Z,13.33
2023-10-26T10:21:37.838Z,13.43
2023-10-26T10:22:37.821Z,13.37
2023-10-26T10:23:37.809Z,13.46
2023-10-26T10:24:37.809Z,13.41
2023-10-26T10:25:37.794Z,13.46
2023-10-26T10:26:37.765Z,13.47
2023-10-26T10:27:37.826Z,13.36
2023-10-26T10:28:37.751Z,13.44
2023-10-26T10:29:37.728Z,13.44
2023-10-26T10:30:37.782Z,13.36
2023-10-26T10:31:37.733Z,13.37
2023-10-26T10:32:37.797Z,13.30
2023-10-26T10:33:37.774Z,13.33
2023-10-26T10:34:37.693Z,13.27
2023-10-26T10:35:37.695Z,13.12
2023-10-26T10:36:37.688Z,13.18
2023-10-26T10:37:37.639Z,13.17
2023-10-26T10:38:37.634Z,13.14
2023-10-26T10:39:37.669Z,13.15
2023-10-26T10:40:37.605Z,13.09
2023-10-26T10:41:37.631Z,13.09
2023-10-26T10:42:37.593Z,13.20
2023-10-26T10:43:37.615Z,13.38
2023-10-26T10:44:37.557Z,13.36
2023-10-26T10:45:37.598Z,13.33
2023-10-26T10:46:37.589Z,13.40
2023-10-26T10:47:37.571Z,13.49
2023-10-26T10:48:37.521Z,13.49
2023-10-26T10:49:37.472Z,13.54
2023-10-26T10:50:37.457Z,13.46
2023-10-26T10:51:37.484Z,13.52
2023-10-26T10:52:37.432Z,13.62
2023-10-26T10:53:37.418Z,13.62
2023-10-26T10:54:48.463Z,13.79
2023-10-26T10:55:38.443Z,13.84
2023-10-26T10:56:37.439Z,13.91
2023-10-26T10:57:37.442Z,14.02
2023-10-26T10:58:37.498Z,14.13
2023-10-26T10:59:37.367Z,14.14
2023-10-26T11:00:37.386Z,14.19
2023-10-26T11:01:37.360Z,14.24
2023-10-26T11:02:37.363Z,14.13
2023-10-26T11:03:37.391Z,14.24
2023-10-26T11:04:51.330Z,14.16
2023-10-26T11:05:38.291Z,14.21
2023-10-26T11:06:37.317Z,14.31
2023-10-26T11:07:37.290Z,14.37
2023-10-26T11:08:37.269Z,14.29
2023-10-26T11:09:37.289Z,14.38
2023-10-26T11:10:37.264Z,14.35
2023-10-26T11:11:37.244Z,14.21
2023-10-26T11:12:37.287Z,14.31
2023-10-26T11:13:37.220Z,14.20
2023-10-26T11:14:37.213Z,14.25
2023-10-26T11:15:37.241Z,14.28
2023-10-26T11:16:37.234Z,14.06
2023-10-26T11:17:37.201Z,14.02
2023-10-26T11:18:37.188Z,14.04
2023-10-26T11:19:37.278Z,14.02
2023-10-26T11:20:37.147Z,13.87
2023-10-26T11:21:37.206Z,13.71
2023-10-26T11:22:37.143Z,13.79
2023-10-26T11:23:37.115Z,13.83
2023-10-26T11:24:37.155Z,13.65
2023-10-26T11:25:37.093Z,13.56
2023-10-26T11:26:37.083Z,13.67
2023-10-26T11:27:38.700Z,13.70
2023-10-26T11:28:37.062Z,13.59
2023-10-26T11:29:37.050Z,13.58
2023-10-26T11:30:37.076Z,13.69
2023-10-26T11:31:37.072Z,13.63
2023-10-26T11:32:37.046Z,13.67
2023-10-26T11:33:37.047Z,13.62
2023-10-26T11:34:36.996Z,13.70
2023-10-26T11:35:37.090Z,13.77
2023-10-26T11:36:36.984Z,13.77
2023-10-26T11:37:36.980Z,13.83
2023-10-26T11:38:36.951Z,13.89
2023-10-26T11:39:36.960Z,13.98
2023-10-26T11:40:36.925Z,14.14
2023-10-26T11:41:36.912Z,14.24
2023-10-26T11:42:36.954Z,14.25
2023-10-26T11:43:36.889Z,14.47
2023-10-26T11:44:36.895Z,14.52
2023-10-26T11:45:36.925Z,14.61
2023-10-26T11:46:36.952Z,14.64
2023-10-26T11:47:36.876Z,14.75
2023-10-26T11:48:36.861Z,14.72
2023-10-26T11:49:36.820Z,14.81
2023-10-26T11:50:36.812Z,14.83
2023-10-26T11:51:40.459Z,14.83
2023-10-26T11:52:37.788Z,14.93
2023-10-26T11:53:36.960Z,14.78
2023-10-26T11:54:36.817Z,14.83
2023-10-26T11:55:36.756Z,14.75
2023-10-26T11:56:36.743Z,14.74
2023-10-26T11:57:36.765Z,14.71
2023-10-26T11:58:36.751Z,14.57
2023-10-26T11:59:36.704Z,14.50
2023-10-26T12:00:36.732Z,14.32
2023-10-26T12:01:36.715Z,14.35
2023-10-26T12:02:36.684Z,14.35
2023-10-26T12:03:36.748Z,14.31
2023-10-26T12:04:36.653Z,14.21
2023-10-26T12:05:36.640Z,14.37
2023-10-26T12:06:36.653Z,14.37
2023-10-26T12:07:36.643Z,14.14
2023-10-26T12:08:36.608Z,14.35
2023-10-26T12:09:36.618Z,14.27
2023-10-26T12:10:36.594Z,14.13
2023-10-26T12:11:36.570Z,14.21
2023-10-26T12:12:36.587Z,14.07
2023-10-26T12:13:36.573Z,14.12
2023-10-26T12:14:36.551Z,14.09
2023-10-26T12:15:36.551Z,14.14
2023-10-26T12:16:36.563Z,14.06
2023-10-26T12:17:36.525Z,14.02
2023-10-26T12:18:36.572Z,14.02
2023-10-26T12:19:36.514Z,13.98
2023-10-26T12:20:36.472Z,14.06
2023-10-26T12:21:36.524Z,14.04
2023-10-26T12:22:36.460Z,13.99
2023-10-26T12:23:36.556Z,13.96
2023-10-26T12:24:36.451Z,13.96
2023-10-26T12:25:36.431Z,13.91
2023-10-26T12:26:36.407Z,13.84
2023-10-26T12:28:20.551Z,13.81
2023-10-26T12:28:37.410Z,13.83
2023-10-26T12:29:36.373Z,13.77
2023-10-26T12:30:36.478Z,13.76
2023-10-26T12:31:36.392Z,13.81
2023-10-26T12:32:36.339Z,13.69
2023-10-26T12:33:39.886Z,13.65
2023-10-26T12:34:37.313Z,13.70
2023-10-26T12:35:37.022Z,13.76
2023-10-26T12:36:36.361Z,13.73
2023-10-26T12:37:36.279Z,13.74
2023-10-26T12:38:36.277Z,13.69
2023-10-26T12:39:36.400Z,13.77
2023-10-26T12:40:36.246Z,13.80
2023-10-26T12:41:36.268Z,13.71
2023-10-26T12:42:36.243Z,13.74
2023-10-26T12:43:36.226Z,13.80
2023-10-26T12:44:36.198Z,13.84
2023-10-26T12:45:37.437Z,13.83
2023-10-26T12:46:36.208Z,13.80
2023-10-26T12:47:36.222Z,13.77
2023-10-26T12:48:36.218Z,13.83
2023-10-26T12:49:36.170Z,14.01
2023-10-26T12:50:36.133Z,14.16
2023-10-26T12:51:37.605Z,14.10
2023-10-26T12:52:36.157Z,14.01
2023-10-26T12:53:36.104Z,14.13
2023-10-26T12:54:36.116Z,14.14
2023-10-26T12:55:36.205Z,14.35
2023-10-26T12:56:36.064Z,14.31
2023-10-26T12:57:36.077Z,14.32
2023-10-26T12:58:36.058Z,14.25
2023-10-26T12:59:36.036Z,14.27
2023-10-26T13:00:36.081Z,14.29
2023-10-26T13:01:36.114Z,14.20
2023-10-26T13:02:36.029Z,14.35
2023-10-26T13:03:36.021Z,14.34
2023-10-26T13:04:36.002Z,14.53
2023-10-26T13:05:35.969Z,14.50
2023-10-26T13:06:35.953Z,14.42
2023-10-26T13:07:35.942Z,14.52
2023-10-26T13:08:35.949Z,14.42
2023-10-26T13:09:35.937Z,14.42
2023-10-26T13:10:35.946Z,14.39
2023-10-26T13:11:36.013Z,14.27
2023-10-26T13:12:35.909Z,14.28
2023-10-26T13:13:35.877Z,14.42
2023-10-26T13:14:35.902Z,14.42
2023-10-26T13:15:35.874Z,14.35
2023-10-26T13:16:56.649Z,14.34
2023-10-26T13:17:36.874Z,14.34
2023-10-26T13:18:35.835Z,14.29
2023-10-26T13:19:35.809Z,14.24
2023-10-26T13:20:35.810Z,14.10
2023-10-26T13:21:35.790Z,14.04
2023-10-26T13:22:35.775Z,14.04
2023-10-26T13:23:35.767Z,14.02
2023-10-26T13:24:35.868Z,13.96
2023-10-26T13:25:35.756Z,13.95
2023-10-26T13:26:35.726Z,14.04
2023-10-26T13:27:35.840Z,13.94
2023-10-26T13:28:35.715Z,14.04
2023-10-26T13:29:35.694Z,13.99
2023-10-26T13:30:35.730Z,14.06
2023-10-26T13:31:35.748Z,14.19
2023-10-26T13:32:35.674Z,14.19
2023-10-26T13:33:35.669Z,14.14
2023-10-26T13:34:35.647Z,14.19
2023-10-26T13:35:35.632Z,14.13
2023-10-26T13:36:35.793Z,14.14
2023-10-26T13:37:35.620Z,14.21
2023-10-26T13:38:35.594Z,14.27
2023-10-26T13:39:35.603Z,14.16
2023-10-26T13:40:35.568Z,14.17
2023-10-26T13:41:35.560Z,14.16
2023-10-26T13:42:35.640Z,14.17
2023-10-26T13:43:35.678Z,14.19
2023-10-26T13:44:35.526Z,14.16
2023-10-26T13:45:35.524Z,14.19
2023-10-26T13:46:35.532Z,14.14
2023-10-26T13:47:35.543Z,14.20
2023-10-26T13:48:35.552Z,14.10
2023-10-26T13:49:35.472Z,14.06
2023-10-26T13:50:35.464Z,14.02
2023-10-26T13:51:35.461Z,13.98
2023-10-26T13:52:35.438Z,14.02
2023-10-26T13:53:35.443Z,13.89
2023-10-26T13:54:35.422Z,13.96
2023-10-26T13:55:35.404Z,13.98
2023-10-26T13:56:35.408Z,13.91
2023-10-26T13:57:35.389Z,13.84
2023-10-26T13:58:35.362Z,13.96
2023-10-26T13:59:35.525Z,13.95
2023-10-26T14:00:35.377Z,13.94
2023-10-26T14:01:35.430Z,14.02
2023-10-26T14:02:35.366Z,13.95
2023-10-26T14:03:35.344Z,13.92
2023-10-26T14:04:37.178Z,13.96
2023-10-26T14:05:35.309Z,13.94
2023-10-26T14:06:35.315Z,13.96
2023-10-26T14:07:35.262Z,13.96
2023-10-26T14:08:35.262Z,13.99
2023-10-26T14:09:35.258Z,14.02
2023-10-26T14:10:35.253Z,13.87
2023-10-26T14:11:35.217Z,13.91
2023-10-26T14:12:35.220Z,13.92
2023-10-26T14:13:35.195Z,13.95
2023-10-26T14:14:35.195Z,13.95
2023-10-26T14:15:35.331Z,14.04
2023-10-26T14:16:35.182Z,14.01
2023-10-26T14:17:35.168Z,13.91
2023-10-26T14:18:35.164Z,14.04
2023-10-26T14:19:35.198Z,14.02
2023-10-26T14:20:35.114Z,13.98
2023-10-26T14:21:35.154Z,13.95
2023-10-26T14:22:35.094Z,13.88
2023-10-26T14:23:35.079Z,13.81
2023-10-26T14:24:35.129Z,13.87
2023-10-26T14:25:35.056Z,13.79
2023-10-26T14:26:35.046Z,13.76
2023-10-26T14:27:35.095Z,13.74
2023-10-26T14:28:35.036Z,13.73
2023-10-26T14:29:35.018Z,13.70
2023-10-26T14:30:35.025Z,13.61
2023-10-26T14:31:35.186Z,13.69
2023-10-26T14:32:35.001Z,13.54
2023-10-26T14:33:34.975Z,13.49
2023-10-26T14:34:34.950Z,13.44
2023-10-26T14:35:34.947Z,13.51
2023-10-26T14:36:34.982Z,13.43
2023-10-26T14:37:34.943Z,13.30
2023-10-26T14:38:34.905Z,13.46
2023-10-26T14:39:34.909Z,13.38
2023-10-26T14:40:34.887Z,13.38
2023-10-26T14:41:34.875Z,13.40
2023-10-26T14:42:34.882Z,13.33
2023-10-26T14:43:34.881Z,13.27
2023-10-26T14:44:34.840Z,13.30
2023-10-26T14:45:34.884Z,13.33
2023-10-26T14:46:34.859Z,13.25
2023-10-26T14:47:34.933Z,13.27
2023-10-26T14:48:34.852Z,13.22
2023-10-26T14:49:34.784Z,13.20
2023-10-26T14:50:34.779Z,13.24
2023-10-26T14:51:34.781Z,13.14
2023-10-26T14:52:34.748Z,13.09
2023-10-26T14:53:34.743Z,13.06
2023-10-26T14:54:34.789Z,12.96
2023-10-26T14:55:34.766Z,12.97
2023-10-26T14:56:34.722Z,12.87
2023-10-26T14:57:34.727Z,12.81
2023-10-26T14:58:34.681Z,12.81
2023-10-26T14:59:34.688Z,12.71
2023-10-26T15:00:34.676Z,12.67
2023-10-26T15:01:34.792Z,12.71
2023-10-26T15:02:34.646Z,12.74
2023-10-26T15:03:34.769Z,12.78
2023-10-26T15:04:34.612Z,12.82
2023-10-26T15:05:34.666Z,12.77
2023-10-26T15:06:34.607Z,12.67
2023-10-26T15:07:34.581Z,12.71
2023-10-26T15:08:34.829Z,12.75
2023-10-26T15:10:21.842Z,12.60
2023-10-26T15:10:38.144Z,12.57
2023-10-26T15:11:55.256Z,12.62
2023-10-26T15:12:35.529Z,12.71
2023-10-26T15:13:34.514Z,12.54
2023-10-26T15:14:34.498Z,12.70
2023-10-26T15:15:34.551Z,12.60
2023-10-26T15:16:34.600Z,12.69
2023-10-26T15:17:34.536Z,12.56
2023-10-26T15:18:34.478Z,12.69
2023-10-26T15:19:34.558Z,12.57
2023-10-26T15:20:34.439Z,12.52
2023-10-26T15:21:34.511Z,12.51
2023-10-26T15:22:34.445Z,12.52
2023-10-26T15:23:34.436Z,12.56
2023-10-26T15:24:34.446Z,12.48
2023-10-26T15:25:34.377Z,12.63
2023-10-26T15:26:34.374Z,12.59
2023-10-26T15:27:34.412Z,12.56
2023-10-26T15:28:34.426Z,12.62
2023-10-26T15:29:34.344Z,12.67
2023-10-26T15:30:34.408Z,12.49
2023-10-26T15:31:34.334Z,12.62
2023-10-26T15:32:34.334Z,12.51
2023-10-26T15:33:34.377Z,12.64
2023-10-26T15:34:34.404Z,12.57
2023-10-26T15:35:34.395Z,12.66
2023-10-26T15:36:34.438Z,12.60
2023-10-26T15:37:34.251Z,12.60
2023-10-26T15:38:34.242Z,12.54
2023-10-26T15:39:34.284Z,12.67
2023-10-26T15:40:34.216Z,12.46
2023-10-26T15:41:34.216Z,12.59
2023-10-26T15:42:34.217Z,12.49
2023-10-26T15:43:34.184Z,12.51
2023-10-26T15:44:34.175Z,12.48
2023-10-26T15:45:34.258Z,12.39
2023-10-26T15:46:34.247Z,12.34
2023-10-26T15:47:34.161Z,12.46
2023-10-26T15:49:32.871Z,12.38
2023-10-26T15:49:36.509Z,12.33
2023-10-26T15:50:34.143Z,12.31
2023-10-26T15:51:34.236Z,12.24
2023-10-26T15:52:34.096Z,12.41
2023-10-26T15:53:34.080Z,12.30
2023-10-26T15:54:34.103Z,12.30
2023-10-26T15:55:34.064Z,12.21
2023-10-26T15:56:34.079Z,12.27
2023-10-26T15:57:34.241Z,12.27
2023-10-26T15:58:34.023Z,12.20
2023-10-26T15:59:34.012Z,12.21
2023-10-26T16:00:34.010Z,12.19
2023-10-26T16:01:34.150Z,12.20
2023-10-26T16:02:34.072Z,12.20
2023-10-26T16:03:34.007Z,12.20
2023-10-26T16:04:33.956Z,12.26
2023-10-26T16:05:33.943Z,12.16
2023-10-26T16:06:33.944Z,12.20
2023-10-26T16:07:34.040Z,12.24
2023-10-26T16:08:33.993Z,12.20
2023-10-26T16:09:37.220Z,12.15
2023-10-26T16:10:33.888Z,12.23
2023-10-26T16:11:33.884Z,12.20
2023-10-26T16:12:33.877Z,12.16
2023-10-26T16:13:33.855Z,12.21
2023-10-26T16:14:33.867Z,12.15
2023-10-26T16:15:33.886Z,12.16
2023-10-26T16:16:33.984Z,12.15
2023-10-26T16:17:33.873Z,12.09
2023-10-26T16:18:33.904Z,12.13
2023-10-26T16:19:34.032Z,12.13
2023-10-26T16:20:36.138Z,12.04
2023-10-26T16:21:33.807Z,12.11
2023-10-26T16:22:33.758Z,12.02
2023-10-26T16:23:33.846Z,12.08
2023-10-26T16:24:33.763Z,12.08
2023-10-26T16:25:33.720Z,12.04
2023-10-26T16:26:33.711Z,11.99
2023-10-26T16:27:33.760Z,12.12
2023-10-26T16:28:33.689Z,11.99
2023-10-26T16:29:33.674Z,12.05
2023-10-26T16:30:33.713Z,12.04
2023-10-26T16:31:33.712Z,12.02
2023-10-26T16:32:33.676Z,11.94
2023-10-26T16:33:33.636Z,12.06
2023-10-26T16:34:33.613Z,12.04
2023-10-26T16:35:33.600Z,12.16
2023-10-26T16:36:33.624Z,11.99
2023-10-26T16:37:33.734Z,12.05
2023-10-26T16:38:33.563Z,12.12
2023-10-26T16:39:33.669Z,12.01
2023-10-26T16:40:33.536Z,12.06
2023-10-26T16:41:33.530Z,12.12
2023-10-26T16:42:33.552Z,12.05
2023-10-26T16:43:33.529Z,12.12
2023-10-26T16:44:33.493Z,12.11
2023-10-26T16:45:33.511Z,12.16
